Terminal Aerodrome Forecast
Issued by NWS

Home | Current Version | Previous Version | Text Only | Print | Product List | Glossary On
Versions: 1 2 3 4 5 6 7 8 9 10 11 12 13 14 15 16 17 18 19
000
FTUS46 KMTR 232300
TAFSNS
TAF
KSNS 232339Z 2400/2424 26017KT P6SM SCT023 OVC028
     FM240200 25010G15KT P6SM BKN018
     FM240800 25006KT P6SM OVC015
     FM241745 26008KT P6SM BKN020=

USA.gov is the U.S. government's official web portal to all federal, state and local government web resources and services.